Time;durP1;ratioP1;P1;durP2;ratioP2;P2;SDS_P1;SDS_P2;PMS_P1;PMS_P2;Temp;Humidity;BMP_temperature;BMP_pressure;BME280_temperature;BME280_humidity;BME280_pressure;Samples;Min_cycle;Max_cycle;Signal;HPM_P1;HPM_P2
2023/06/13 00:00:24;;;;;;;7.87;5.10;;;17.70;92.90;;;18.46;83.58;97802.63;5025895;28;20830;-82
2023/06/13 00:02:55;;;;;;;6.80;4.87;;;17.70;92.60;;;18.43;84.09;97803.91;5024855;28;20484;-83
2023/06/13 00:05:25;;;;;;;7.77;4.50;;;17.70;92.80;;;18.38;84.61;97806.50;5026052;28;20468;-82
2023/06/13 00:07:54;;;;;;;8.13;5.50;;;17.70;92.90;;;18.34;84.71;97813.31;5025568;28;20656;-82
2023/06/13 00:10:23;;;;;;;8.17;5.07;;;17.60;92.80;;;18.31;84.80;97815.63;5024874;28;20483;-82
2023/06/13 00:12:52;;;;;;;7.17;4.90;;;17.60;92.90;;;18.27;84.74;97815.31;5025967;28;20482;-82
2023/06/13 00:15:20;;;;;;;9.07;5.10;;;17.50;92.90;;;18.21;85.67;97808.34;5025392;28;20497;-82
2023/06/13 00:17:53;;;;;;;6.67;4.83;;;17.50;93.10;;;18.16;85.98;97815.38;5026022;28;20504;-82
2023/06/13 00:20:24;;;;;;;7.00;5.30;;;17.40;93.00;;;18.09;86.28;97820.84;5023913;28;20470;-83
2023/06/13 00:22:55;;;;;;;12.10;5.43;;;17.40;93.10;;;18.07;86.66;97822.94;5025195;28;20466;-82
2023/06/13 00:25:24;;;;;;;6.40;4.83;;;17.30;93.30;;;18.07;86.46;97815.00;5026168;28;20506;-82
2023/06/13 00:27:53;;;;;;;7.70;4.60;;;17.30;93.50;;;18.06;86.49;97823.97;5025619;28;20997;-82
2023/06/13 00:30:22;;;;;;;8.93;5.43;;;17.30;93.30;;;18.02;87.08;97820.19;5025499;28;20477;-82
2023/06/13 00:32:54;;;;;;;12.63;4.70;;;17.20;93.30;;;17.97;87.27;97823.59;5026268;28;20482;-82
2023/06/13 00:35:23;;;;;;;8.70;4.70;;;17.20;93.30;;;17.94;87.25;97825.91;5025911;28;20476;-83
2023/06/13 00:37:56;;;;;;;6.97;5.03;;;17.10;93.40;;;17.88;87.61;97817.06;5024919;28;20491;-82
2023/06/13 00:40:26;;;;;;;7.33;5.33;;;17.10;93.50;;;17.85;87.77;97814.91;5025400;28;20462;-82
2023/06/13 00:42:57;;;;;;;7.30;5.20;;;17.10;93.40;;;17.82;87.73;97809.28;5025702;28;20863;-82
2023/06/13 00:45:29;;;;;;;7.00;4.70;;;17.10;93.50;;;17.79;88.07;97805.28;5025550;28;20462;-82
2023/06/13 00:48:03;;;;;;;7.10;4.80;;;17.00;93.60;;;17.74;88.56;97801.72;5024889;28;21102;-82
2023/06/13 00:50:35;;;;;;;7.53;4.97;;;17.00;93.70;;;17.67;89.08;97803.75;5024677;28;20999;-82
2023/06/13 00:53:09;;;;;;;7.90;5.27;;;16.90;93.80;;;17.62;89.15;97803.66;5025691;28;20461;-82
2023/06/13 00:55:40;;;;;;;6.33;4.97;;;16.90;93.80;;;17.56;90.12;97808.84;5025935;28;20461;-82
2023/06/13 00:58:11;;;;;;;8.20;5.27;;;16.80;93.80;;;17.51;90.27;97800.78;5024775;28;20454;-82
2023/06/13 01:00:43;;;;;;;6.60;4.50;;;16.70;93.90;;;17.48;90.09;97803.91;5024627;28;20474;-82
2023/06/13 01:03:15;;;;;;;7.63;4.97;;;16.70;93.90;;;17.43;91.07;97803.81;5025117;28;20478;-82
2023/06/13 01:05:47;;;;;;;8.00;5.47;;;16.70;94.10;;;17.37;91.15;97807.41;5025065;28;20458;-82
2023/06/13 01:08:21;;;;;;;10.57;4.80;;;16.60;94.00;;;17.33;91.35;97808.09;5025270;28;20494;-82
2023/06/13 01:11:00;;;;;;;10.60;4.87;;;16.60;94.00;;;17.26;92.22;97805.59;5024270;28;20471;-82
2023/06/13 01:13:36;;;;;;;5.50;4.70;;;16.60;94.10;;;17.23;93.08;97807.91;5025051;28;20466;-82
2023/06/13 01:16:16;;;;;;;5.70;4.77;;;16.50;94.60;;;17.22;92.63;97799.16;5024213;28;20470;-82
2023/06/13 01:18:53;;;;;;;6.13;4.90;;;16.50;94.50;;;17.18;93.02;97800.69;5023645;28;20465;-83
2023/06/13 01:21:24;;;;;;;6.20;4.50;;;16.40;94.30;;;17.09;94.04;97805.53;5024325;28;20477;-82
2023/06/13 01:24:02;;;;;;;8.03;5.13;;;16.40;94.50;;;17.06;93.89;97811.28;5024344;28;20569;-82
2023/06/13 01:26:53;;;;;;;7.93;5.30;;;16.30;94.60;;;17.03;93.92;97814.41;5024154;28;21107;-82
2023/06/13 01:29:23;;;;;;;8.27;5.43;;;16.30;94.50;;;17.05;93.68;97817.59;5025136;28;20508;-83
2023/06/13 01:31:57;;;;;;;9.20;5.83;;;16.30;94.70;;;16.99;93.74;97815.09;5025049;28;20466;-82
2023/06/13 01:34:27;;;;;;;7.77;5.20;;;16.20;94.60;;;16.92;94.27;97812.59;5025076;28;20490;-83
2023/06/13 01:36:56;;;;;;;8.50;5.33;;;16.20;94.60;;;16.88;95.08;97808.81;5023944;28;20517;-84
2023/06/13 01:39:25;;;;;;;6.00;4.70;;;16.20;94.70;;;16.85;95.33;97811.91;5024444;28;20462;-82
2023/06/13 01:41:56;;;;;;;9.10;4.70;;;16.10;95.00;;;16.80;95.71;97803.88;5025149;28;20466;-82
2023/06/13 01:44:25;;;;;;;8.90;5.10;;;16.10;94.90;;;16.72;96.31;97808.72;5025553;28;20477;-82
2023/06/13 01:47:07;;;;;;;7.23;4.80;;;16.10;94.90;;;16.69;96.66;97804.72;5026762;28;20488;-83
2023/06/13 01:49:51;;;;;;;6.97;4.53;;;16.00;95.00;;;16.66;96.65;97805.16;5025096;28;21517;-82
2023/06/13 01:52:33;;;;;;;6.87;4.40;;;16.00;95.00;;;16.65;96.29;97797.47;5025391;28;20474;-83
2023/06/13 01:55:09;;;;;;;7.13;4.90;;;15.90;95.00;;;16.63;96.89;97795.06;5025667;28;20821;-82
2023/06/13 01:57:49;;;;;;;7.03;4.93;;;15.90;95.30;;;16.59;96.44;97789.44;5024695;28;20465;-83
2023/06/13 02:00:21;;;;;;;7.80;5.50;;;15.90;95.00;;;16.56;96.74;97792.53;5024352;28;20470;-82
2023/06/13 02:02:52;;;;;;;9.67;4.90;;;15.80;95.10;;;16.52;97.00;97788.72;5025049;28;20469;-83
2023/06/13 02:05:21;;;;;;;8.03;4.60;;;15.80;95.40;;;16.52;96.68;97803.78;5000292;28;20832;-82
2023/06/13 02:07:53;;;;;;;7.50;5.47;;;15.80;95.20;;;16.49;96.63;97799.75;5023819;28;20860;-82
2023/06/13 02:10:22;;;;;;;13.53;4.97;;;15.80;95.10;;;16.47;97.12;97798.38;5024169;28;20509;-82
2023/06/13 02:12:52;;;;;;;8.40;5.40;;;15.70;95.10;;;16.39;98.16;97796.88;5023559;28;21173;-83
2023/06/13 02:15:21;;;;;;;5.80;4.67;;;15.60;95.30;;;16.39;97.87;97793.44;5024710;28;20532;-83
2023/06/13 02:17:49;;;;;;;7.30;5.50;;;15.60;95.50;;;16.31;98.35;97797.25;5022383;28;20480;-82
2023/06/13 02:20:19;;;;;;;12.97;5.53;;;15.60;95.30;;;16.24;99.60;97793.91;5023803;28;20470;-83
2023/06/13 02:22:48;;;;;;;6.97;4.73;;;15.60;95.50;;;16.17;100.00;97792.41;5024993;28;20454;-82
2023/06/13 02:25:17;;;;;;;5.93;4.33;;;15.50;95.60;;;16.13;100.00;97786.78;5024519;28;20564;-83
2023/06/13 02:27:47;;;;;;;8.93;5.10;;;15.40;95.60;;;16.13;100.00;97799.97;5024200;28;20557;-83
2023/06/13 02:30:17;;;;;;;6.90;4.70;;;15.40;95.80;;;16.08;100.00;97792.75;5023076;28;20574;-83
2023/06/13 02:32:46;;;;;;;6.97;4.73;;;15.40;95.60;;;16.04;100.00;97791.59;5025191;28;20490;-83
2023/06/13 02:35:15;;;;;;;9.23;5.37;;;15.40;95.70;;;15.98;100.00;97789.88;5024316;28;20535;-82
2023/06/13 02:37:44;;;;;;;6.40;4.40;;;15.30;95.70;;;15.99;100.00;97788.03;5024590;28;21015;-83
2023/06/13 02:40:14;;;;;;;8.37;5.50;;;15.30;95.80;;;16.05;100.00;97787.94;5024075;28;20473;-82
2023/06/13 02:42:49;;;;;;;6.33;4.80;;;15.30;96.10;;;16.02;100.00;97785.75;5025770;28;20650;-83
2023/06/13 02:45:19;;;;;;;6.07;4.90;;;15.30;95.80;;;15.95;100.00;97786.88;5024115;28;20497;-82
2023/06/13 02:47:48;;;;;;;8.33;4.70;;;15.20;95.80;;;15.90;100.00;97787.56;5024113;28;20935;-82
2023/06/13 02:50:18;;;;;;;10.87;5.23;;;15.20;96.00;;;15.81;100.00;97777.56;5023481;28;20489;-82
2023/06/13 02:52:48;;;;;;;8.17;4.80;;;15.10;96.10;;;15.82;100.00;97787.09;5026752;28;20465;-81
2023/06/13 02:55:21;;;;;;;7.00;4.93;;;15.10;96.10;;;15.80;100.00;97773.31;5028066;28;20458;-82
2023/06/13 02:57:50;;;;;;;7.70;4.20;;;15.00;96.10;;;15.79;100.00;97782.28;5028110;28;20475;-82
2023/06/13 03:00:20;;;;;;;6.80;4.50;;;15.00;96.10;;;15.78;100.00;97783.31;5027610;28;20461;-82
2023/06/13 03:02:49;;;;;;;8.17;5.20;;;15.00;96.10;;;15.74;100.00;97784.78;5027289;28;20498;-82
2023/06/13 03:05:18;;;;;;;8.20;4.70;;;15.00;96.10;;;15.72;100.00;97786.84;5025368;28;20468;-79
2023/06/13 03:07:47;;;;;;;6.97;5.07;;;15.00;96.10;;;15.73;100.00;97781.31;5023497;28;20477;-82
2023/06/13 03:10:18;;;;;;;10.03;5.10;;;14.90;96.20;;;15.72;100.00;97769.19;5025255;28;20494;-82
2023/06/13 03:12:46;;;;;;;5.90;4.30;;;15.00;96.20;;;15.67;100.00;97782.25;5024136;28;20470;-81
2023/06/13 03:15:16;;;;;;;6.80;5.10;;;15.00;96.10;;;15.65;100.00;97779.03;5023930;28;20470;-80
2023/06/13 03:17:47;;;;;;;6.20;4.23;;;14.90;96.20;;;15.63;100.00;97777.63;5021846;28;21003;-77
2023/06/13 03:20:17;;;;;;;9.30;4.93;;;14.90;96.20;;;15.57;100.00;97780.16;5022578;28;20485;-80
2023/06/13 03:22:55;;;;;;;7.23;4.97;;;14.90;96.20;;;15.53;100.00;97779.00;5024709;28;20477;-80
2023/06/13 03:25:24;;;;;;;5.80;4.57;;;14.90;96.30;;;15.50;100.00;97779.44;5024704;28;20470;-79
2023/06/13 03:27:53;;;;;;;7.97;4.60;;;14.80;96.30;;;15.46;100.00;97786.16;5027344;28;20506;-79
2023/06/13 03:30:22;;;;;;;9.27;4.30;;;14.70;96.30;;;15.43;100.00;97783.16;5026233;28;20559;-80
2023/06/13 03:32:54;;;;;;;7.10;4.90;;;14.70;96.40;;;15.42;100.00;97781.56;5026614;28;20489;-78
2023/06/13 03:35:24;;;;;;;10.40;4.30;;;14.70;96.40;;;15.39;100.00;97782.81;5021716;28;20457;-80
2023/06/13 03:37:53;;;;;;;6.97;4.43;;;14.70;96.40;;;15.34;100.00;97785.31;5023340;28;20469;-80
2023/06/13 03:40:22;;;;;;;6.63;5.27;;;14.60;96.40;;;15.31;100.00;97787.56;5025528;28;20500;-80
2023/06/13 03:42:51;;;;;;;8.67;5.27;;;14.60;96.50;;;15.30;100.00;97799.97;5026701;28;20466;-80
2023/06/13 03:45:19;;;;;;;5.80;4.10;;;14.60;96.60;;;15.25;100.00;97799.81;5026177;28;20477;-82
2023/06/13 03:47:48;;;;;;;8.63;4.60;;;14.50;96.50;;;15.22;100.00;97797.63;5024718;28;21232;-80
2023/06/13 03:50:19;;;;;;;5.80;4.97;;;14.50;96.60;;;15.22;100.00;97802.91;5025040;28;20575;-79
2023/06/13 03:52:48;;;;;;;13.40;5.17;;;14.50;96.70;;;15.21;100.00;97801.28;5026108;28;21039;-79
2023/06/13 03:55:18;;;;;;;7.87;4.80;;;14.50;96.70;;;15.16;100.00;97798.53;5025580;28;20520;-80
2023/06/13 03:57:47;;;;;;;7.20;4.80;;;14.50;96.70;;;15.13;100.00;97805.03;5024574;28;20496;-80
2023/06/13 04:00:17;;;;;;;7.67;4.60;;;14.40;96.80;;;15.11;100.00;97806.28;5024749;28;20467;-79
2023/06/13 04:02:45;;;;;;;7.10;5.17;;;14.40;96.90;;;15.15;100.00;97802.19;5024859;28;20458;-79
2023/06/13 04:05:16;;;;;;;20.07;4.60;;;14.40;97.30;;;15.17;100.00;97802.75;5024685;28;20465;-79
2023/06/13 04:07:46;;;;;;;6.27;4.67;;;14.40;97.00;;;15.18;100.00;97814.09;5022685;28;20488;-78
2023/06/13 04:10:15;;;;;;;10.37;5.17;;;14.40;96.90;;;15.18;100.00;97814.91;5022233;28;21054;-80
2023/06/13 04:12:45;;;;;;;7.87;5.03;;;14.40;97.10;;;15.17;100.00;97815.91;5023058;28;20528;-80
2023/06/13 04:15:15;;;;;;;6.80;4.73;;;14.40;97.00;;;15.17;100.00;97812.50;5023279;28;20842;-80
2023/06/13 04:17:43;;;;;;;7.10;4.87;;;14.30;97.00;;;15.15;100.00;97815.34;5023259;28;20467;-80
2023/06/13 04:20:19;;;;;;;6.23;4.80;;;14.30;97.10;;;15.16;100.00;97816.97;5020584;28;20502;-78
2023/06/13 04:22:49;;;;;;;9.30;5.83;;;14.30;97.10;;;15.15;100.00;97818.00;5024494;28;20461;-80
2023/06/13 04:25:19;;;;;;;10.63;8.03;;;14.40;97.20;;;15.16;100.00;97824.88;5022489;28;20458;-80
2023/06/13 04:27:48;;;;;;;6.33;4.57;;;14.30;97.20;;;15.19;100.00;97823.63;5022241;28;20469;-76
2023/06/13 04:30:17;;;;;;;17.87;6.23;;;14.40;97.30;;;15.20;100.00;97820.78;5023410;28;20494;-80
2023/06/13 04:32:46;;;;;;;8.83;5.50;;;14.40;97.20;;;15.24;100.00;97829.03;5020330;28;20490;-80
2023/06/13 04:35:18;;;;;;;9.30;4.70;;;14.40;97.20;;;15.27;100.00;97823.31;5023364;28;20824;-80
2023/06/13 04:37:48;;;;;;;9.57;5.00;;;14.40;97.20;;;15.29;100.00;97829.16;5026111;28;20461;-80
2023/06/13 04:40:18;;;;;;;8.23;5.50;;;14.50;97.30;;;15.28;100.00;97835.44;5027742;28;20471;-80
2023/06/13 04:42:51;;;;;;;10.17;5.30;;;14.50;97.30;;;15.29;100.00;97840.50;5026472;28;20469;-80
2023/06/13 04:45:21;;;;;;;7.13;4.70;;;14.50;97.20;;;15.31;100.00;97843.72;5027235;28;20590;-80
2023/06/13 04:47:51;;;;;;;7.47;5.20;;;14.50;97.30;;;15.35;100.00;97844.06;5026692;28;20463;-80
2023/06/13 04:50:25;;;;;;;7.47;4.83;;;14.50;97.30;;;15.39;100.00;97843.41;5026170;28;20501;-80
2023/06/13 04:52:57;;;;;;;6.50;4.47;;;14.60;97.30;;;15.39;100.00;97842.63;5024854;28;20520;-80
2023/06/13 04:55:32;;;;;;;8.73;5.70;;;14.60;97.50;;;15.40;100.00;97849.50;5024866;28;20825;-80
2023/06/13 04:58:01;;;;;;;5.70;4.20;;;14.60;97.30;;;15.39;100.00;97843.41;5026290;28;20577;-81
2023/06/13 05:00:30;;;;;;;7.23;5.07;;;14.60;97.40;;;15.42;100.00;97848.25;5026292;28;20499;-80
2023/06/13 05:03:01;;;;;;;6.50;4.33;;;14.60;97.60;;;15.48;100.00;97849.19;5025808;28;20577;-80
2023/06/13 05:05:30;;;;;;;9.13;5.37;;;14.60;97.50;;;15.53;100.00;97852.78;5025836;28;20678;-80
2023/06/13 05:08:02;;;;;;;6.80;4.73;;;14.70;97.20;;;15.58;100.00;97845.00;5024374;28;20473;-80
2023/06/13 05:10:32;;;;;;;6.97;4.37;;;14.70;97.10;;;15.64;100.00;97847.78;5025997;28;20544;-80
2023/06/13 05:13:01;;;;;;;10.13;4.60;;;14.70;97.30;;;15.69;100.00;97855.84;5024458;28;20548;-80
2023/06/13 05:15:31;;;;;;;7.73;4.70;;;14.80;97.30;;;15.73;100.00;97849.06;5027015;28;20476;-81
2023/06/13 05:17:59;;;;;;;5.20;4.07;;;14.90;97.30;;;15.73;100.00;97851.72;5026478;28;20470;-80
2023/06/13 05:20:30;;;;;;;5.97;4.43;;;15.00;97.30;;;15.74;100.00;97853.31;5026432;28;20469;-80
2023/06/13 05:23:02;;;;;;;6.13;4.37;;;15.00;97.10;;;15.75;100.00;97854.94;5025478;28;20867;-81
2023/06/13 05:25:32;;;;;;;6.10;4.40;;;15.00;96.90;;;15.76;100.00;97857.34;5026047;28;20458;-80
2023/06/13 05:28:02;;;;;;;5.83;4.20;;;15.00;97.00;;;15.81;100.00;97854.03;5026864;28;20965;-80
2023/06/13 05:30:30;;;;;;;8.43;4.50;;;15.00;97.30;;;15.87;100.00;97861.03;5025896;28;20485;-80
2023/06/13 05:33:00;;;;;;;6.03;4.50;;;15.10;97.30;;;15.92;100.00;97858.53;5026509;28;20572;-80
2023/06/13 05:35:28;;;;;;;9.53;4.73;;;15.10;97.50;;;15.98;100.00;97858.44;5024709;28;20980;-80
2023/06/13 05:38:13;;;;;;;5.97;4.70;;;15.10;97.40;;;16.06;100.00;97863.41;5026417;28;20472;-81
2023/06/13 05:40:43;;;;;;;5.97;4.40;;;15.20;97.50;;;16.13;100.00;97865.13;5025014;28;20469;-80
2023/06/13 05:43:19;;;;;;;6.70;4.30;;;15.20;97.50;;;16.19;100.00;97862.38;5025446;28;20465;-81
2023/06/13 05:45:48;;;;;;;5.77;4.40;;;15.30;97.30;;;16.26;100.00;97860.44;5026362;28;20464;-80
2023/06/13 05:48:18;;;;;;;8.87;5.60;;;15.40;97.50;;;16.33;100.00;97855.06;5025597;28;20968;-80
2023/06/13 05:50:46;;;;;;;10.17;4.33;;;15.40;97.10;;;16.40;100.00;97856.56;5024641;28;20552;-80
2023/06/13 05:53:16;;;;;;;12.67;4.73;;;15.50;97.20;;;16.45;100.00;97859.31;5025126;28;20470;-80
2023/06/13 05:55:46;;;;;;;11.30;5.43;;;15.50;97.30;;;16.51;100.00;97850.50;5025503;28;20466;-80
2023/06/13 05:58:14;;;;;;;7.10;5.40;;;15.60;97.20;;;16.56;100.00;97855.91;5024388;28;20501;-80
2023/06/13 06:00:45;;;;;;;6.70;4.70;;;15.70;97.10;;;16.60;100.00;97854.41;5024856;28;20552;-80
2023/06/13 06:03:15;;;;;;;6.43;4.00;;;15.70;96.10;;;16.68;97.95;97855.09;5024855;28;20474;-81
2023/06/13 06:05:44;;;;;;;6.53;4.03;;;15.90;95.80;;;16.73;97.12;97863.16;5025381;28;20893;-80
2023/06/13 06:08:13;;;;;;;6.83;3.87;;;15.90;95.60;;;16.79;96.46;97856.94;5023975;28;20968;-81
2023/06/13 06:10:43;;;;;;;13.20;4.13;;;15.90;95.70;;;16.87;94.92;97856.59;5026333;28;20828;-80
2023/06/13 06:13:12;;;;;;;5.30;4.37;;;16.00;95.20;;;16.94;95.02;97865.19;5025515;28;20520;-80
2023/06/13 06:15:41;;;;;;;5.87;4.37;;;16.10;95.40;;;17.02;94.01;97851.63;5025562;28;20474;-80
2023/06/13 06:18:10;;;;;;;6.70;4.30;;;16.10;95.00;;;17.07;91.14;97854.38;5024602;28;20476;-80
2023/06/13 06:20:39;;;;;;;8.17;4.03;;;16.20;94.40;;;17.16;90.23;97852.16;5026385;28;20474;-80
2023/06/13 06:23:08;;;;;;;5.00;3.90;;;16.20;94.20;;;17.25;89.60;97864.00;5025822;28;20458;-80
2023/06/13 06:25:36;;;;;;;6.30;4.07;;;16.40;94.40;;;17.33;88.30;97863.59;5028511;28;20457;-80
2023/06/13 06:28:08;;;;;;;5.57;3.80;;;16.50;94.00;;;17.39;87.67;97858.19;5029998;28;20879;-80
2023/06/13 06:30:37;;;;;;;6.43;3.50;;;16.60;93.90;;;17.45;86.95;97848.53;5030168;28;20540;-80
2023/06/13 06:33:07;;;;;;;4.20;3.40;;;16.70;93.70;;;17.51;85.25;97840.47;5028139;28;21038;-80
2023/06/13 06:35:36;;;;;;;6.70;3.93;;;16.80;93.30;;;17.56;85.57;97843.22;5027555;28;20538;-80
2023/06/13 06:38:04;;;;;;;5.07;3.37;;;16.70;93.30;;;17.63;86.17;97848.38;5028122;28;20462;-80
2023/06/13 06:40:33;;;;;;;6.77;3.77;;;16.80;93.70;;;17.70;85.87;97848.22;5029058;28;21042;-80
2023/06/13 06:43:01;;;;;;;8.63;4.10;;;16.80;93.50;;;17.78;86.82;97855.75;5029415;28;20466;-80
2023/06/13 06:45:31;;;;;;;5.27;3.63;;;16.90;93.90;;;17.84;84.27;97847.69;5028697;28;20473;-81
2023/06/13 06:48:01;;;;;;;6.30;3.80;;;17.10;93.10;;;17.90;83.28;97851.22;5028149;28;20458;-80
2023/06/13 06:50:30;;;;;;;8.00;3.90;;;17.10;92.90;;;17.96;83.03;97847.63;5028017;28;20481;-80
2023/06/13 06:52:59;;;;;;;7.13;3.60;;;17.20;93.20;;;18.01;83.27;97855.66;5028897;28;20497;-80
2023/06/13 06:55:28;;;;;;;5.00;3.60;;;17.20;92.90;;;18.08;78.77;97851.03;5029544;28;20473;-80
2023/06/13 06:57:57;;;;;;;4.70;3.20;;;17.30;91.80;;;18.13;79.03;97850.28;5028603;28;20457;-80
2023/06/13 07:00:26;;;;;;;6.67;3.27;;;17.30;91.90;;;18.19;78.66;97847.47;5029306;28;20458;-80
2023/06/13 07:02:56;;;;;;;5.67;3.70;;;17.40;91.80;;;18.27;76.73;97836.50;5028721;28;20474;-80
2023/06/13 07:05:25;;;;;;;5.70;3.00;;;17.60;91.40;;;18.35;75.36;97841.41;5027833;28;20458;-80
2023/06/13 07:07:54;;;;;;;4.87;3.57;;;17.70;90.90;;;18.40;74.67;97838.81;5028656;28;20548;-80
2023/06/13 07:10:24;;;;;;;7.20;3.67;;;17.60;90.80;;;18.48;75.41;97841.06;5027968;28;20486;-80
2023/06/13 07:12:52;;;;;;;4.90;3.73;;;17.70;91.10;;;18.58;74.77;97835.13;5028215;28;20493;-80
2023/06/13 07:15:22;;;;;;;5.07;3.50;;;17.80;90.90;;;18.67;73.91;97838.19;5028193;28;20469;-80
2023/06/13 07:17:51;;;;;;;5.97;3.87;;;17.90;90.60;;;18.74;72.60;97839.63;5027677;28;20465;-80
2023/06/13 07:20:22;;;;;;;4.93;3.60;;;18.10;90.40;;;18.81;73.23;97834.94;5027969;28;20952;-81
2023/06/13 07:22:51;;;;;;;5.50;3.20;;;18.10;90.60;;;18.88;72.73;97824.19;5028144;28;20470;-80
2023/06/13 07:25:19;;;;;;;6.20;3.27;;;18.20;90.50;;;18.96;72.47;97832.47;5026273;28;21003;-80
2023/06/13 07:27:48;;;;;;;7.73;3.40;;;18.30;90.50;;;19.04;71.78;97831.25;5027750;28;20977;-80
2023/06/13 07:30:16;;;;;;;6.27;3.90;;;18.40;90.20;;;19.09;72.23;97821.50;5027747;28;20477;-80
2023/06/13 07:32:46;;;;;;;6.30;3.20;;;18.40;90.20;;;19.17;72.10;97832.72;5028308;28;20502;-80
2023/06/13 07:35:16;;;;;;;4.63;3.50;;;18.50;90.50;;;19.26;68.89;97842.69;5027302;28;20470;-80
2023/06/13 07:37:48;;;;;;;5.30;3.00;;;18.50;88.90;;;19.34;68.71;97836.13;5027521;28;20469;-80
2023/06/13 07:40:17;;;;;;;6.33;3.30;;;18.70;89.20;;;19.41;67.20;97840.22;5027388;28;20477;-80
2023/06/13 07:42:46;;;;;;;4.83;3.30;;;18.80;88.10;;;19.48;67.63;97834.72;5027079;28;20481;-80
2023/06/13 07:45:14;;;;;;;8.67;3.20;;;18.80;88.80;;;19.53;67.63;97821.53;5027818;28;20473;-80
2023/06/13 07:47:44;;;;;;;5.57;3.43;;;19.00;88.50;;;19.56;67.32;97819.16;5028226;28;20494;-80
2023/06/13 07:50:13;;;;;;;5.73;3.27;;;19.00;88.20;;;19.62;67.85;97819.19;5027125;28;20471;-80
2023/06/13 07:52:42;;;;;;;5.20;3.30;;;19.00;88.70;;;19.65;69.10;97811.53;5026526;28;20593;-80
2023/06/13 07:55:12;;;;;;;5.30;2.77;;;18.90;90.00;;;19.71;69.15;97823.03;5026846;28;20462;-80
2023/06/13 07:57:41;;;;;;;5.03;3.03;;;19.00;90.00;;;19.75;66.61;97814.28;5028328;28;20840;-80
2023/06/13 08:00:26;;;;;;;4.03;2.93;;;19.10;88.00;;;19.81;67.41;97813.31;5028116;28;20551;-80
2023/06/13 08:02:55;;;;;;;5.30;3.37;;;19.10;88.80;;;19.85;66.90;97810.97;5027847;28;20470;-80
2023/06/13 08:05:24;;;;;;;8.47;3.57;;;19.20;88.30;;;19.87;66.45;97809.66;5026439;28;20473;-80
2023/06/13 08:07:53;;;;;;;4.50;3.07;;;19.10;88.00;;;19.88;66.29;97811.25;5026853;28;20489;-79
2023/06/13 08:10:24;;;;;;;6.50;3.37;;;19.10;88.10;;;19.98;65.68;97814.00;5026719;28;20481;-80
2023/06/13 08:12:55;;;;;;;3.23;2.70;;;19.30;87.80;;;20.07;64.35;97811.66;5027414;28;20879;-80
2023/06/13 08:15:24;;;;;;;4.67;3.13;;;19.40;87.00;;;20.13;63.81;97799.25;5025039;28;20941;-80
2023/06/13 08:17:54;;;;;;;3.80;2.60;;;19.50;86.50;;;20.19;63.91;97807.00;5027067;28;20470;-80
2023/06/13 08:20:23;;;;;;;12.23;3.57;;;19.50;86.70;;;20.23;62.41;97800.13;5027833;28;20624;-80
2023/06/13 08:22:52;;;;;;;10.70;3.93;;;19.50;85.60;;;20.26;62.16;97794.31;5026586;28;20465;-81
2023/06/13 08:25:23;;;;;;;4.67;3.37;;;19.60;86.10;;;20.31;62.36;97791.69;5027916;28;20612;-80
2023/06/13 08:27:52;;;;;;;6.27;3.43;;;19.60;85.70;;;20.35;61.88;97791.97;5027328;28;20465;-80
2023/06/13 08:30:22;;;;;;;11.27;3.20;;;19.70;85.60;;;20.41;62.03;97794.41;5025628;28;20466;-80
2023/06/13 08:32:53;;;;;;;9.00;3.90;;;19.80;85.60;;;20.47;61.57;97790.75;5026325;28;20536;-80
2023/06/13 08:35:22;;;;;;;4.77;3.23;;;19.90;85.40;;;20.51;60.83;97786.50;5027393;28;20468;-80
2023/06/13 08:37:51;;;;;;;6.67;3.33;;;19.80;84.50;;;20.58;61.39;97791.63;5025922;28;21007;-81
2023/06/13 08:40:19;;;;;;;6.33;3.53;;;20.00;85.50;;;20.58;60.77;97789.72;5026287;28;20830;-80
2023/06/13 08:42:52;;;;;;;5.40;3.60;;;19.90;84.60;;;20.64;60.84;97784.47;5026970;28;20504;-80
2023/06/13 08:45:22;;;;;;;4.60;3.20;;;20.00;85.20;;;20.67;60.91;97779.44;5026590;28;20450;-80
2023/06/13 08:47:53;;;;;;;17.23;3.70;;;20.00;85.40;;;20.72;60.27;97765.38;5027757;28;20492;-80
2023/06/13 08:50:24;;;;;;;6.30;4.23;;;20.20;84.60;;;20.74;60.92;97779.19;5025353;28;20519;-80
2023/06/13 08:52:55;;;;;;;7.17;4.00;;;20.00;84.70;;;20.76;57.62;97793.00;5026861;28;20501;-80
2023/06/13 08:55:28;;;;;;;4.10;2.93;;;20.00;82.60;;;20.75;55.18;97783.47;5027375;28;20484;-80
2023/06/13 08:58:04;;;;;;;4.70;3.23;;;20.10;80.80;;;20.79;55.66;97780.00;5027181;28;20461;-80
2023/06/13 09:00:35;;;;;;;4.80;3.37;;;20.20;81.10;;;20.78;55.53;97786.41;5026784;28;20554;-80
2023/06/13 09:03:09;;;;;;;5.90;3.40;;;20.00;81.10;;;20.81;55.38;97779.75;5027039;28;20469;-80
2023/06/13 09:05:39;;;;;;;11.53;3.83;;;20.20;81.10;;;20.82;55.06;97776.84;5027087;28;20976;-80
2023/06/13 09:08:11;;;;;;;6.80;3.37;;;20.20;80.60;;;20.90;56.56;97784.31;5027130;28;20471;-80
2023/06/13 09:11:00;;;;;;;6.83;3.63;;;20.20;82.30;;;21.02;55.08;97770.81;5026032;28;20473;-80
2023/06/13 09:13:32;;;;;;;3.30;3.00;;;20.40;80.90;;;21.08;54.08;97761.78;5025916;28;20486;-81
2023/06/13 09:16:02;;;;;;;4.70;3.40;;;20.50;79.90;;;21.06;54.17;97764.72;5025493;28;20493;-80
2023/06/13 09:18:36;;;;;;;5.03;3.37;;;20.40;80.00;;;21.18;54.30;97766.38;5025751;28;20523;-80
2023/06/13 09:21:05;;;;;;;4.87;3.30;;;20.50;80.30;;;21.28;51.60;97764.53;5026304;28;20477;-80
2023/06/13 09:23:36;;;;;;;6.00;3.50;;;20.60;77.20;;;21.33;50.08;97766.41;5024218;28;20462;-80
2023/06/13 09:26:07;;;;;;;5.90;3.50;;;20.80;76.40;;;21.36;50.88;97764.03;5025705;28;20493;-80
2023/06/13 09:28:42;;;;;;;4.37;3.10;;;20.80;77.50;;;21.38;51.56;97759.22;5025731;28;20466;-80
2023/06/13 09:31:12;;;;;;;13.30;3.50;;;20.70;78.30;;;21.42;52.74;97755.00;5026377;28;20529;-80
2023/06/13 09:33:43;;;;;;;5.57;3.07;;;20.70;79.50;;;21.46;53.44;97756.06;5025613;28;20497;-81
2023/06/13 09:36:13;;;;;;;4.57;3.23;;;20.80;80.00;;;21.56;52.90;97761.41;5025149;28;20473;-80
2023/06/13 09:38:43;;;;;;;4.47;3.40;;;21.00;79.20;;;21.65;52.36;97756.38;5026181;28;20492;-80
2023/06/13 09:41:14;;;;;;;10.37;3.37;;;21.00;79.00;;;21.67;51.16;97753.44;5024663;28;21010;-80
2023/06/13 09:43:44;;;;;;;9.50;2.97;;;21.00;78.00;;;21.75;49.16;97768.88;5025941;28;20462;-80
2023/06/13 09:46:14;;;;;;;5.47;3.00;;;21.20;76.00;;;21.75;48.16;97775.00;5025370;28;20458;-80
2023/06/13 09:48:45;;;;;;;6.83;3.20;;;21.20;75.10;;;21.70;48.19;97772.31;5025384;28;20484;-81
2023/06/13 09:51:14;;;;;;;6.53;2.80;;;21.10;74.90;;;21.73;48.13;97774.47;5025952;28;20557;-80
2023/06/13 09:53:46;;;;;;;7.20;3.30;;;21.10;74.90;;;21.74;49.40;97777.94;5025890;28;20863;-80
2023/06/13 09:56:16;;;;;;;4.40;3.40;;;21.10;76.40;;;21.74;49.16;97761.94;5025328;28;20462;-80
2023/06/13 09:58:47;;;;;;;5.67;3.00;;;21.00;76.60;;;21.73;50.34;97765.69;5025585;28;20470;-80
2023/06/13 10:01:17;;;;;;;6.77;3.40;;;21.00;77.90;;;21.81;48.53;97762.50;5029713;28;20462;-80
2023/06/13 10:03:46;;;;;;;11.17;3.40;;;21.20;75.60;;;21.88;49.01;97763.81;5029375;28;20734;-80
2023/06/13 10:06:15;;;;;;;5.97;3.00;;;21.20;76.00;;;21.87;48.49;97761.41;5031757;28;20462;-80
2023/06/13 10:08:43;;;;;;;4.40;3.00;;;21.10;75.70;;;21.92;48.45;97758.81;5028729;28;20470;-80
2023/06/13 10:11:15;;;;;;;5.63;3.50;;;21.20;75.80;;;21.95;48.06;97763.59;5029992;28;20470;-81
2023/06/13 10:13:56;;;;;;;4.90;3.53;;;21.30;74.80;;;22.02;47.27;97754.28;5028204;28;20905;-80
2023/06/13 10:16:28;;;;;;;5.07;2.90;;;21.40;75.10;;;22.02;47.32;97761.47;5029104;28;20477;-80
2023/06/13 10:19:01;;;;;;;4.60;3.47;;;21.30;74.80;;;22.09;48.42;97751.34;5028917;28;21211;-80
2023/06/13 10:21:31;;;;;;;7.77;3.23;;;21.40;75.70;;;22.16;47.96;97738.53;5029537;28;20544;-81
2023/06/13 10:24:16;;;;;;;8.30;3.40;;;21.50;75.60;;;22.15;47.33;97741.47;5029792;28;20492;-81
2023/06/13 10:26:46;;;;;;;4.43;3.07;;;21.50;75.00;;;22.25;46.23;97738.81;5028691;28;20548;-81
2023/06/13 10:30:02;;;;;;;4.53;3.27;;;21.60;73.10;;;22.39;44.69;97737.16;5030021;28;20466;-80